sensor_id;sensor_type;location;lat;lon;timestamp;pressure;altitude;pressure_sealevel;temperature;humidity
11339;BME280;5724;42.684;23.252;2023-06-26T00:00:17;94199.78;;;18.08;100.00
11339;BME280;5724;42.684;23.252;2023-06-26T00:02:43;94194.19;;;18.11;100.00
11339;BME280;5724;42.684;23.252;2023-06-26T00:05:08;94193.88;;;18.02;100.00
11339;BME280;5724;42.684;23.252;2023-06-26T00:07:35;94195.03;;;18.05;100.00
11339;BME280;5724;42.684;23.252;2023-06-26T00:10:02;94182.47;;;18.00;100.00
11339;BME280;5724;42.684;23.252;2023-06-26T00:12:28;94171.56;;;17.86;100.00
11339;BME280;5724;42.684;23.252;2023-06-26T00:14:54;94191.09;;;18.06;100.00
11339;BME280;5724;42.684;23.252;2023-06-26T00:17:20;94169.19;;;17.84;100.00
11339;BME280;5724;42.684;23.252;2023-06-26T00:19:45;94192.38;;;17.97;100.00
11339;BME280;5724;42.684;23.252;2023-06-26T00:22:11;94198.31;;;17.96;100.00
11339;BME280;5724;42.684;23.252;2023-06-26T00:24:36;94195.53;;;17.96;100.00
11339;BME280;5724;42.684;23.252;2023-06-26T00:27:02;94195.19;;;17.90;100.00
11339;BME280;5724;42.684;23.252;2023-06-26T00:29:27;94174.31;;;17.86;100.00
11339;BME280;5724;42.684;23.252;2023-06-26T00:31:53;94181.41;;;17.87;100.00
11339;BME280;5724;42.684;23.252;2023-06-26T00:34:18;94187.31;;;17.85;100.00
11339;BME280;5724;42.684;23.252;2023-06-26T00:36:44;94192.78;;;17.92;100.00
11339;BME280;5724;42.684;23.252;2023-06-26T00:39:10;94190.50;;;17.84;100.00
11339;BME280;5724;42.684;23.252;2023-06-26T00:41:39;94192.06;;;17.85;100.00
11339;BME280;5724;42.684;23.252;2023-06-26T00:44:05;94179.44;;;17.84;100.00
11339;BME280;5724;42.684;23.252;2023-06-26T00:46:31;94179.06;;;17.82;100.00
11339;BME280;5724;42.684;23.252;2023-06-26T00:48:59;94187.00;;;17.80;100.00
11339;BME280;5724;42.684;23.252;2023-06-26T00:51:27;94181.44;;;17.83;100.00
11339;BME280;5724;42.684;23.252;2023-06-26T00:53:53;94183.41;;;17.83;100.00
11339;BME280;5724;42.684;23.252;2023-06-26T00:56:19;94161.81;;;17.70;100.00
11339;BME280;5724;42.684;23.252;2023-06-26T00:58:45;94174.03;;;17.73;100.00
11339;BME280;5724;42.684;23.252;2023-06-26T01:01:11;94168.06;;;17.74;100.00
11339;BME280;5724;42.684;23.252;2023-06-26T01:03:44;94127.25;;;17.48;100.00
11339;BME280;5724;42.684;23.252;2023-06-26T01:06:12;94158.66;;;17.68;100.00
11339;BME280;5724;42.684;23.252;2023-06-26T01:08:39;94162.97;;;17.73;100.00
11339;BME280;5724;42.684;23.252;2023-06-26T01:11:06;94164.53;;;17.78;100.00
11339;BME280;5724;42.684;23.252;2023-06-26T01:13:32;94163.72;;;17.77;100.00
11339;BME280;5724;42.684;23.252;2023-06-26T01:15:58;94159.72;;;17.82;100.00
11339;BME280;5724;42.684;23.252;2023-06-26T01:18:25;94159.84;;;17.71;100.00
11339;BME280;5724;42.684;23.252;2023-06-26T01:20:51;94145.59;;;17.72;100.00
11339;BME280;5724;42.684;23.252;2023-06-26T01:23:22;94150.34;;;17.68;100.00
11339;BME280;5724;42.684;23.252;2023-06-26T01:28:34;94138.94;;;17.63;100.00
11339;BME280;5724;42.684;23.252;2023-06-26T01:31:02;94142.59;;;17.53;100.00
11339;BME280;5724;42.684;23.252;2023-06-26T01:33:28;94135.53;;;17.48;100.00
11339;BME280;5724;42.684;23.252;2023-06-26T01:35:53;94137.91;;;17.50;100.00
11339;BME280;5724;42.684;23.252;2023-06-26T01:38:20;94137.53;;;17.48;100.00
11339;BME280;5724;42.684;23.252;2023-06-26T01:40:48;94133.22;;;17.43;100.00
11339;BME280;5724;42.684;23.252;2023-06-26T01:46:10;94125.38;;;17.38;100.00
11339;BME280;5724;42.684;23.252;2023-06-26T01:49:14;94134.75;;;17.48;100.00
11339;BME280;5724;42.684;23.252;2023-06-26T01:52:09;94133.16;;;17.50;100.00
11339;BME280;5724;42.684;23.252;2023-06-26T01:54:44;94130.75;;;17.52;100.00
11339;BME280;5724;42.684;23.252;2023-06-26T01:57:12;94128.41;;;17.51;100.00
11339;BME280;5724;42.684;23.252;2023-06-26T01:59:40;94123.31;;;17.45;100.00
11339;BME280;5724;42.684;23.252;2023-06-26T02:02:08;94130.41;;;17.50;100.00
11339;BME280;5724;42.684;23.252;2023-06-26T02:04:34;94137.81;;;17.60;100.00
11339;BME280;5724;42.684;23.252;2023-06-26T02:06:59;94136.94;;;17.70;100.00
11339;BME280;5724;42.684;23.252;2023-06-26T02:09:25;94131.00;;;17.72;100.00
11339;BME280;5724;42.684;23.252;2023-06-26T02:11:51;94132.63;;;17.69;100.00
11339;BME280;5724;42.684;23.252;2023-06-26T02:14:16;94133.41;;;17.66;100.00
11339;BME280;5724;42.684;23.252;2023-06-26T02:16:42;94132.88;;;17.82;100.00
11339;BME280;5724;42.684;23.252;2023-06-26T02:19:07;94136.53;;;17.72;100.00
11339;BME280;5724;42.684;23.252;2023-06-26T02:21:33;94125.91;;;17.63;100.00
11339;BME280;5724;42.684;23.252;2023-06-26T02:23:58;94123.16;;;17.63;100.00
11339;BME280;5724;42.684;23.252;2023-06-26T02:26:23;94129.63;;;17.46;100.00
11339;BME280;5724;42.684;23.252;2023-06-26T02:28:49;94132.78;;;17.48;100.00
11339;BME280;5724;42.684;23.252;2023-06-26T02:31:15;94125.28;;;17.45;100.00
11339;BME280;5724;42.684;23.252;2023-06-26T02:33:41;94121.00;;;17.37;100.00
11339;BME280;5724;42.684;23.252;2023-06-26T02:36:07;94115.16;;;17.31;100.00
11339;BME280;5724;42.684;23.252;2023-06-26T02:38:33;94126.13;;;17.42;100.00
11339;BME280;5724;42.684;23.252;2023-06-26T02:40:58;94136.41;;;17.38;100.00
11339;BME280;5724;42.684;23.252;2023-06-26T02:43:24;94130.91;;;17.38;100.00
11339;BME280;5724;42.684;23.252;2023-06-26T02:45:49;94135.66;;;17.34;100.00
11339;BME280;5724;42.684;23.252;2023-06-26T02:48:15;94129.44;;;17.23;100.00
11339;BME280;5724;42.684;23.252;2023-06-26T02:50:40;94133.41;;;17.18;100.00
11339;BME280;5724;42.684;23.252;2023-06-26T02:53:06;94128.28;;;17.16;100.00
11339;BME280;5724;42.684;23.252;2023-06-26T02:55:32;94133.34;;;17.29;100.00
11339;BME280;5724;42.684;23.252;2023-06-26T02:57:58;94132.56;;;17.25;100.00
11339;BME280;5724;42.684;23.252;2023-06-26T03:00:23;94123.09;;;17.26;100.00
11339;BME280;5724;42.684;23.252;2023-06-26T03:02:49;94124.66;;;17.27;100.00
11339;BME280;5724;42.684;23.252;2023-06-26T03:05:14;94129.00;;;17.28;100.00
11339;BME280;5724;42.684;23.252;2023-06-26T03:07:40;94122.75;;;17.16;100.00
11339;BME280;5724;42.684;23.252;2023-06-26T03:10:05;94130.25;;;17.16;100.00
11339;BME280;5724;42.684;23.252;2023-06-26T03:12:31;94131.03;;;17.16;100.00
11339;BME280;5724;42.684;23.252;2023-06-26T03:14:57;94131.06;;;17.13;100.00
11339;BME280;5724;42.684;23.252;2023-06-26T03:17:22;94124.00;;;17.12;100.00
11339;BME280;5724;42.684;23.252;2023-06-26T03:19:47;94132.66;;;17.14;100.00
11339;BME280;5724;42.684;23.252;2023-06-26T03:22:13;94130.66;;;17.14;100.00
11339;BME280;5724;42.684;23.252;2023-06-26T03:24:39;94136.59;;;17.13;100.00
11339;BME280;5724;42.684;23.252;2023-06-26T03:27:04;94129.47;;;17.15;100.00
11339;BME280;5724;42.684;23.252;2023-06-26T03:29:30;94142.50;;;17.19;100.00
11339;BME280;5724;42.684;23.252;2023-06-26T03:31:55;94133.81;;;17.16;100.00
11339;BME280;5724;42.684;23.252;2023-06-26T03:34:21;94150.78;;;17.19;100.00
11339;BME280;5724;42.684;23.252;2023-06-26T03:36:46;94143.66;;;17.17;100.00
11339;BME280;5724;42.684;23.252;2023-06-26T03:39:12;94139.69;;;17.22;100.00
11339;BME280;5724;42.684;23.252;2023-06-26T03:41:37;94144.06;;;17.20;100.00
11339;BME280;5724;42.684;23.252;2023-06-26T03:44:03;94139.72;;;17.19;100.00
11339;BME280;5724;42.684;23.252;2023-06-26T03:46:29;94142.78;;;17.31;100.00
11339;BME280;5724;42.684;23.252;2023-06-26T03:48:54;94142.81;;;17.28;100.00
11339;BME280;5724;42.684;23.252;2023-06-26T03:51:20;94143.59;;;17.28;100.00
11339;BME280;5724;42.684;23.252;2023-06-26T03:53:45;94142.00;;;17.31;100.00
11339;BME280;5724;42.684;23.252;2023-06-26T03:56:11;94141.94;;;17.38;100.00
11339;BME280;5724;42.684;23.252;2023-06-26T03:58:36;94142.75;;;17.35;100.00
11339;BME280;5724;42.684;23.252;2023-06-26T04:01:02;94137.94;;;17.42;100.00
11339;BME280;5724;42.684;23.252;2023-06-26T04:03:27;94142.28;;;17.43;100.00
11339;BME280;5724;42.684;23.252;2023-06-26T04:05:53;94140.66;;;17.46;100.00
11339;BME280;5724;42.684;23.252;2023-06-26T04:08:18;94137.53;;;17.44;100.00
11339;BME280;5724;42.684;23.252;2023-06-26T04:10:45;94140.19;;;17.58;100.00
11339;BME280;5724;42.684;23.252;2023-06-26T04:13:11;94145.66;;;17.62;100.00
11339;BME280;5724;42.684;23.252;2023-06-26T04:15:37;94139.31;;;17.68;100.00
11339;BME280;5724;42.684;23.252;2023-06-26T04:18:02;94137.75;;;17.67;100.00
11339;BME280;5724;42.684;23.252;2023-06-26T04:20:28;94140.09;;;17.69;100.00
11339;BME280;5724;42.684;23.252;2023-06-26T04:22:53;94144.00;;;17.75;100.00
11339;BME280;5724;42.684;23.252;2023-06-26T04:25:19;94147.84;;;17.85;100.00
11339;BME280;5724;42.684;23.252;2023-06-26T04:27:44;94147.09;;;17.81;100.00
11339;BME280;5724;42.684;23.252;2023-06-26T04:30:10;94151.81;;;17.84;100.00
11339;BME280;5724;42.684;23.252;2023-06-26T04:32:37;94155.81;;;17.76;100.00
11339;BME280;5724;42.684;23.252;2023-06-26T04:35:03;94158.13;;;17.84;100.00
11339;BME280;5724;42.684;23.252;2023-06-26T04:37:29;94148.63;;;17.89;100.00
11339;BME280;5724;42.684;23.252;2023-06-26T04:39:54;94155.72;;;17.90;100.00
11339;BME280;5724;42.684;23.252;2023-06-26T04:42:19;94157.22;;;17.98;100.00
11339;BME280;5724;42.684;23.252;2023-06-26T04:44:47;94163.47;;;18.06;100.00
11339;BME280;5724;42.684;23.252;2023-06-26T04:47:12;94161.78;;;18.12;100.00
11339;BME280;5724;42.684;23.252;2023-06-26T04:49:40;94158.19;;;18.18;100.00
11339;BME280;5724;42.684;23.252;2023-06-26T04:52:08;94158.47;;;18.27;100.00
11339;BME280;5724;42.684;23.252;2023-06-26T04:54:33;94165.94;;;18.30;100.00
11339;BME280;5724;42.684;23.252;2023-06-26T04:56:59;94162.44;;;18.26;100.00
11339;BME280;5724;42.684;23.252;2023-06-26T04:59:25;94165.44;;;18.39;100.00
11339;BME280;5724;42.684;23.252;2023-06-26T05:01:50;94157.88;;;18.09;100.00
11339;BME280;5724;42.684;23.252;2023-06-26T05:04:16;94169.00;;;18.02;100.00
11339;BME280;5724;42.684;23.252;2023-06-26T05:06:41;94180.00;;;18.09;100.00
11339;BME280;5724;42.684;23.252;2023-06-26T05:09:07;94184.03;;;18.01;100.00
11339;BME280;5724;42.684;23.252;2023-06-26T05:11:33;94168.78;;;18.23;100.00
11339;BME280;5724;42.684;23.252;2023-06-26T05:13:58;94168.34;;;18.28;100.00
11339;BME280;5724;42.684;23.252;2023-06-26T05:16:24;94173.44;;;18.34;100.00
11339;BME280;5724;42.684;23.252;2023-06-26T05:18:49;94145.50;;;18.21;100.00
11339;BME280;5724;42.684;23.252;2023-06-26T05:21:16;94181.00;;;18.60;100.00
11339;BME280;5724;42.684;23.252;2023-06-26T05:23:45;94167.53;;;18.62;100.00
11339;BME280;5724;42.684;23.252;2023-06-26T05:26:12;94174.81;;;18.49;100.00
11339;BME280;5724;42.684;23.252;2023-06-26T05:28:38;94174.09;;;18.45;100.00
11339;BME280;5724;42.684;23.252;2023-06-26T05:31:05;94183.59;;;18.44;100.00
11339;BME280;5724;42.684;23.252;2023-06-26T05:33:35;94186.63;;;18.19;100.00
11339;BME280;5724;42.684;23.252;2023-06-26T05:36:03;94195.84;;;18.05;100.00
11339;BME280;5724;42.684;23.252;2023-06-26T05:38:29;94185.47;;;18.13;100.00
11339;BME280;5724;42.684;23.252;2023-06-26T05:40:55;94183.78;;;18.26;100.00
11339;BME280;5724;42.684;23.252;2023-06-26T05:43:21;94181.63;;;18.03;100.00
11339;BME280;5724;42.684;23.252;2023-06-26T05:45:48;94185.97;;;18.04;100.00
11339;BME280;5724;42.684;23.252;2023-06-26T05:48:14;94188.44;;;18.33;100.00
11339;BME280;5724;42.684;23.252;2023-06-26T05:50:39;94199.19;;;18.27;100.00
11339;BME280;5724;42.684;23.252;2023-06-26T05:53:07;94183.97;;;18.08;100.00
11339;BME280;5724;42.684;23.252;2023-06-26T05:55:33;94198.81;;;18.21;100.00
11339;BME280;5724;42.684;23.252;2023-06-26T05:57:59;94187.75;;;18.21;100.00
11339;BME280;5724;42.684;23.252;2023-06-26T06:00:26;94196.41;;;18.27;100.00
11339;BME280;5724;42.684;23.252;2023-06-26T06:02:52;94199.84;;;18.38;100.00
11339;BME280;5724;42.684;23.252;2023-06-26T06:05:21;94189.56;;;18.39;100.00
11339;BME280;5724;42.684;23.252;2023-06-26T06:07:48;94196.16;;;18.48;100.00
11339;BME280;5724;42.684;23.252;2023-06-26T06:10:13;94202.16;;;18.43;100.00
11339;BME280;5724;42.684;23.252;2023-06-26T06:12:39;94194.22;;;18.45;100.00
11339;BME280;5724;42.684;23.252;2023-06-26T06:15:05;94187.63;;;18.36;100.00
11339;BME280;5724;42.684;23.252;2023-06-26T06:17:31;94192.97;;;18.53;100.00
11339;BME280;5724;42.684;23.252;2023-06-26T06:19:56;94192.03;;;18.67;100.00
11339;BME280;5724;42.684;23.252;2023-06-26T06:22:22;94196.88;;;18.56;100.00
11339;BME280;5724;42.684;23.252;2023-06-26T06:24:48;94174.31;;;18.57;100.00
11339;BME280;5724;42.684;23.252;2023-06-26T06:27:14;94182.44;;;18.75;100.00
11339;BME280;5724;42.684;23.252;2023-06-26T06:29:39;94180.50;;;18.72;100.00
11339;BME280;5724;42.684;23.252;2023-06-26T06:32:06;94184.91;;;18.66;100.00
11339;BME280;5724;42.684;23.252;2023-06-26T06:34:31;94179.94;;;18.84;100.00
11339;BME280;5724;42.684;23.252;2023-06-26T06:36:57;94172.63;;;18.98;100.00
11339;BME280;5724;42.684;23.252;2023-06-26T06:39:22;94182.16;;;18.97;100.00
11339;BME280;5724;42.684;23.252;2023-06-26T06:41:48;94184.94;;;19.24;100.00
11339;BME280;5724;42.684;23.252;2023-06-26T06:44:13;94177.31;;;19.31;100.00
11339;BME280;5724;42.684;23.252;2023-06-26T06:46:39;94179.34;;;19.27;100.00
11339;BME280;5724;42.684;23.252;2023-06-26T06:49:04;94181.31;;;19.00;100.00
11339;BME280;5724;42.684;23.252;2023-06-26T06:51:30;94189.53;;;19.34;100.00
11339;BME280;5724;42.684;23.252;2023-06-26T06:53:56;94186.94;;;19.23;99.76
11339;BME280;5724;42.684;23.252;2023-06-26T06:56:21;94179.84;;;19.45;99.26
11339;BME280;5724;42.684;23.252;2023-06-26T06:58:47;94194.75;;;19.55;97.80
11339;BME280;5724;42.684;23.252;2023-06-26T07:01:13;94185.47;;;19.69;100.00
11339;BME280;5724;42.684;23.252;2023-06-26T07:03:39;94178.25;;;19.98;100.00
11339;BME280;5724;42.684;23.252;2023-06-26T07:06:05;94166.06;;;19.69;95.16
11339;BME280;5724;42.684;23.252;2023-06-26T07:08:31;94185.47;;;19.92;97.59
11339;BME280;5724;42.684;23.252;2023-06-26T07:10:56;94183.09;;;20.14;95.65
11339;BME280;5724;42.684;23.252;2023-06-26T07:13:22;94172.31;;;20.20;96.07
11339;BME280;5724;42.684;23.252;2023-06-26T07:15:48;94174.84;;;20.11;96.21
11339;BME280;5724;42.684;23.252;2023-06-26T07:18:14;94172.69;;;19.98;97.67
11339;BME280;5724;42.684;23.252;2023-06-26T07:20:39;94171.63;;;20.12;97.29
11339;BME280;5724;42.684;23.252;2023-06-26T07:23:05;94176.06;;;19.86;95.81
11339;BME280;5724;42.684;23.252;2023-06-26T07:25:30;94176.28;;;19.95;95.33
11339;BME280;5724;42.684;23.252;2023-06-26T07:27:56;94178.03;;;20.09;94.62
11339;BME280;5724;42.684;23.252;2023-06-26T07:30:21;94179.88;;;20.16;94.34
11339;BME280;5724;42.684;23.252;2023-06-26T07:32:47;94167.13;;;20.42;92.15
11339;BME280;5724;42.684;23.252;2023-06-26T07:35:12;94186.41;;;20.06;94.62
11339;BME280;5724;42.684;23.252;2023-06-26T07:37:37;94180.63;;;20.20;94.21
11339;BME280;5724;42.684;23.252;2023-06-26T07:40:03;94179.25;;;20.08;90.77
11339;BME280;5724;42.684;23.252;2023-06-26T07:42:29;94175.78;;;20.47;91.80
11339;BME280;5724;42.684;23.252;2023-06-26T07:44:54;94179.47;;;20.80;92.11
11339;BME280;5724;42.684;23.252;2023-06-26T07:47:20;94186.94;;;20.64;90.16
11339;BME280;5724;42.684;23.252;2023-06-26T07:49:45;94199.78;;;20.57;88.64
11339;BME280;5724;42.684;23.252;2023-06-26T07:52:11;94171.84;;;20.65;89.75
11339;BME280;5724;42.684;23.252;2023-06-26T07:54:37;94180.22;;;21.01;87.08
11339;BME280;5724;42.684;23.252;2023-06-26T07:57:04;94184.41;;;21.09;85.23
11339;BME280;5724;42.684;23.252;2023-06-26T07:59:32;94183.69;;;21.25;86.44
11339;BME280;5724;42.684;23.252;2023-06-26T08:01:58;94199.00;;;21.13;86.08
11339;BME280;5724;42.684;23.252;2023-06-26T08:04:26;94194.44;;;20.86;86.17
11339;BME280;5724;42.684;23.252;2023-06-26T08:06:54;94179.63;;;21.09;87.18
11339;BME280;5724;42.684;23.252;2023-06-26T08:09:22;94191.72;;;21.39;84.72
11339;BME280;5724;42.684;23.252;2023-06-26T08:11:48;94184.84;;;21.07;82.79
11339;BME280;5724;42.684;23.252;2023-06-26T08:14:14;94189.13;;;20.92;81.75
11339;BME280;5724;42.684;23.252;2023-06-26T08:16:41;94175.31;;;21.08;83.30
11339;BME280;5724;42.684;23.252;2023-06-26T08:19:07;94188.34;;;20.92;82.09
11339;BME280;5724;42.684;23.252;2023-06-26T08:21:33;94184.09;;;20.87;83.21
11339;BME280;5724;42.684;23.252;2023-06-26T08:23:58;94171.22;;;20.77;83.96
11339;BME280;5724;42.684;23.252;2023-06-26T08:26:24;94185.00;;;21.00;82.49
11339;BME280;5724;42.684;23.252;2023-06-26T08:28:49;94195.63;;;20.85;80.71
11339;BME280;5724;42.684;23.252;2023-06-26T08:31:16;94184.63;;;21.18;83.98
11339;BME280;5724;42.684;23.252;2023-06-26T08:33:41;94175.22;;;21.48;79.85
11339;BME280;5724;42.684;23.252;2023-06-26T08:36:07;94178.72;;;21.52;78.36
11339;BME280;5724;42.684;23.252;2023-06-26T08:38:32;94179.75;;;21.58;77.51
11339;BME280;5724;42.684;23.252;2023-06-26T08:40:58;94181.19;;;21.30;79.38
11339;BME280;5724;42.684;23.252;2023-06-26T08:43:24;94168.94;;;21.28;79.51
11339;BME280;5724;42.684;23.252;2023-06-26T08:45:50;94172.25;;;21.39;80.89
11339;BME280;5724;42.684;23.252;2023-06-26T08:48:17;94188.84;;;21.06;78.16
11339;BME280;5724;42.684;23.252;2023-06-26T08:50:44;94179.94;;;21.15;78.81
11339;BME280;5724;42.684;23.252;2023-06-26T08:56:11;94169.28;;;21.30;79.03
11339;BME280;5724;42.684;23.252;2023-06-26T08:58:39;94185.22;;;21.46;77.98
11339;BME280;5724;42.684;23.252;2023-06-26T09:01:05;94187.75;;;21.56;77.80
11339;BME280;5724;42.684;23.252;2023-06-26T09:03:31;94184.72;;;21.67;76.21
11339;BME280;5724;42.684;23.252;2023-06-26T09:05:57;94184.44;;;21.94;75.24
11339;BME280;5724;42.684;23.252;2023-06-26T09:08:22;94182.19;;;22.05;74.88
11339;BME280;5724;42.684;23.252;2023-06-26T09:10:48;94188.44;;;22.25;75.02
11339;BME280;5724;42.684;23.252;2023-06-26T09:13:13;94180.09;;;22.09;74.26
11339;BME280;5724;42.684;23.252;2023-06-26T09:15:43;94189.41;;;22.19;75.49
11339;BME280;5724;42.684;23.252;2023-06-26T09:18:16;94184.47;;;22.10;75.95
11339;BME280;5724;42.684;23.252;2023-06-26T09:20:42;94182.47;;;22.11;76.33
11339;BME280;5724;42.684;23.252;2023-06-26T09:23:08;94176.44;;;21.96;77.80
11339;BME280;5724;42.684;23.252;2023-06-26T09:25:38;94162.50;;;22.28;77.68
11339;BME280;5724;42.684;23.252;2023-06-26T09:28:04;94173.56;;;22.61;75.32
11339;BME280;5724;42.684;23.252;2023-06-26T09:30:32;94210.72;;;22.54;71.00
11339;BME280;5724;42.684;23.252;2023-06-26T09:32:57;94187.22;;;22.26;70.40
11339;BME280;5724;42.684;23.252;2023-06-26T09:35:23;94190.66;;;22.47;69.92
11339;BME280;5724;42.684;23.252;2023-06-26T09:37:50;94169.78;;;22.39;72.57
11339;BME280;5724;42.684;23.252;2023-06-26T09:40:15;94181.72;;;22.68;70.86
11339;BME280;5724;42.684;23.252;2023-06-26T09:42:41;94171.72;;;22.83;67.50
11339;BME280;5724;42.684;23.252;2023-06-26T09:45:07;94171.59;;;23.03;67.93
11339;BME280;5724;42.684;23.252;2023-06-26T09:47:34;94174.56;;;22.96;66.99
11339;BME280;5724;42.684;23.252;2023-06-26T09:50:02;94174.31;;;22.78;67.36
11339;BME280;5724;42.684;23.252;2023-06-26T09:52:27;94191.31;;;22.22;68.26
11339;BME280;5724;42.684;23.252;2023-06-26T09:55:09;94175.66;;;21.95;68.83
11339;BME280;5724;42.684;23.252;2023-06-26T09:57:35;94169.56;;;22.17;67.67
11339;BME280;5724;42.684;23.252;2023-06-26T10:00:02;94179.31;;;22.54;69.37
11339;BME280;5724;42.684;23.252;2023-06-26T10:02:28;94176.44;;;22.57;66.68
11339;BME280;5724;42.684;23.252;2023-06-26T10:04:53;94166.28;;;22.80;67.26
11339;BME280;5724;42.684;23.252;2023-06-26T10:07:19;94168.13;;;22.99;67.80
11339;BME280;5724;42.684;23.252;2023-06-26T10:09:46;94175.88;;;22.50;66.82
11339;BME280;5724;42.684;23.252;2023-06-26T10:12:27;94174.56;;;22.67;68.77
11339;BME280;5724;42.684;23.252;2023-06-26T10:14:53;94174.56;;;22.38;67.10
11339;BME280;5724;42.684;23.252;2023-06-26T10:17:20;94154.81;;;22.49;67.72
11339;BME280;5724;42.684;23.252;2023-06-26T10:19:47;94181.13;;;22.32;65.97
11339;BME280;5724;42.684;23.252;2023-06-26T10:22:17;94161.03;;;22.40;67.33
11339;BME280;5724;42.684;23.252;2023-06-26T10:24:45;94154.06;;;22.61;65.89
11339;BME280;5724;42.684;23.252;2023-06-26T10:27:23;94157.19;;;22.63;66.21
11339;BME280;5724;42.684;23.252;2023-06-26T10:29:56;94169.13;;;22.64;66.67
11339;BME280;5724;42.684;23.252;2023-06-26T10:32:25;94163.53;;;22.93;67.15
11339;BME280;5724;42.684;23.252;2023-06-26T10:34:52;94165.22;;;22.90;65.41
11339;BME280;5724;42.684;23.252;2023-06-26T10:37:18;94161.53;;;23.06;64.39
11339;BME280;5724;42.684;23.252;2023-06-26T10:39:51;94165.81;;;22.81;60.52
11339;BME280;5724;42.684;23.252;2023-06-26T10:42:28;94162.75;;;22.92;60.79
11339;BME280;5724;42.684;23.252;2023-06-26T10:45:09;94160.88;;;22.89;61.61
11339;BME280;5724;42.684;23.252;2023-06-26T10:47:35;94162.66;;;22.96;61.67
11339;BME280;5724;42.684;23.252;2023-06-26T10:50:24;94162.88;;;22.89;63.47
11339;BME280;5724;42.684;23.252;2023-06-26T10:56:03;94165.69;;;22.72;63.64
11339;BME280;5724;42.684;23.252;2023-06-26T11:01:20;94146.19;;;23.14;65.00
11339;BME280;5724;42.684;23.252;2023-06-26T11:04:05;94144.06;;;23.31;63.62
11339;BME280;5724;42.684;23.252;2023-06-26T11:06:32;94139.28;;;23.44;63.33
11339;BME280;5724;42.684;23.252;2023-06-26T11:14:20;94145.75;;;23.28;60.29
11339;BME280;5724;42.684;23.252;2023-06-26T11:16:46;94145.97;;;23.21;61.29
11339;BME280;5724;42.684;23.252;2023-06-26T11:19:13;94144.28;;;23.11;61.46
11339;BME280;5724;42.684;23.252;2023-06-26T11:21:39;94143.72;;;23.16;63.99
11339;BME280;5724;42.684;23.252;2023-06-26T11:24:09;94154.44;;;23.18;60.90
11339;BME280;5724;42.684;23.252;2023-06-26T11:26:38;94138.84;;;23.20;59.52
11339;BME280;5724;42.684;23.252;2023-06-26T11:29:04;94143.19;;;23.08;59.98
11339;BME280;5724;42.684;23.252;2023-06-26T11:31:32;94153.06;;;22.97;60.13
11339;BME280;5724;42.684;23.252;2023-06-26T11:34:00;94149.38;;;22.87;59.96
11339;BME280;5724;42.684;23.252;2023-06-26T11:36:27;94146.06;;;22.63;61.08
11339;BME280;5724;42.684;23.252;2023-06-26T11:38:56;94145.38;;;22.59;61.23
11339;BME280;5724;42.684;23.252;2023-06-26T11:41:23;94142.81;;;22.65;63.37
11339;BME280;5724;42.684;23.252;2023-06-26T11:43:49;94149.09;;;22.69;61.50
11339;BME280;5724;42.684;23.252;2023-06-26T11:46:17;94147.63;;;22.64;62.39
11339;BME280;5724;42.684;23.252;2023-06-26T11:48:43;94148.94;;;22.60;61.77
11339;BME280;5724;42.684;23.252;2023-06-26T11:51:09;94137.75;;;22.47;62.18
11339;BME280;5724;42.684;23.252;2023-06-26T11:53:41;94144.50;;;22.62;61.75
11339;BME280;5724;42.684;23.252;2023-06-26T11:56:14;94130.09;;;22.93;61.58
11339;BME280;5724;42.684;23.252;2023-06-26T12:01:26;94127.13;;;23.12;58.63
11339;BME280;5724;42.684;23.252;2023-06-26T12:03:57;94135.06;;;23.39;58.88
11339;BME280;5724;42.684;23.252;2023-06-26T12:06:23;94125.56;;;23.50;59.32
11339;BME280;5724;42.684;23.252;2023-06-26T12:08:49;94134.25;;;23.52;57.95
11339;BME280;5724;42.684;23.252;2023-06-26T12:11:17;94153.34;;;23.40;59.03
11339;BME280;5724;42.684;23.252;2023-06-26T12:13:43;94126.91;;;23.45;58.87
11339;BME280;5724;42.684;23.252;2023-06-26T12:16:08;94116.84;;;23.35;58.65
11339;BME280;5724;42.684;23.252;2023-06-26T12:18:35;94110.19;;;23.32;58.05
11339;BME280;5724;42.684;23.252;2023-06-26T12:21:01;94129.47;;;23.52;59.15
11339;BME280;5724;42.684;23.252;2023-06-26T12:23:33;94129.59;;;23.49;57.57
11339;BME280;5724;42.684;23.252;2023-06-26T12:26:19;94131.78;;;23.16;58.22
11339;BME280;5724;42.684;23.252;2023-06-26T12:28:45;94139.50;;;23.11;59.55
11339;BME280;5724;42.684;23.252;2023-06-26T12:31:15;94133.69;;;23.06;59.81
11339;BME280;5724;42.684;23.252;2023-06-26T12:33:42;94126.34;;;23.12;60.73
11339;BME280;5724;42.684;23.252;2023-06-26T12:36:14;94141.84;;;23.13;60.54
11339;BME280;5724;42.684;23.252;2023-06-26T12:38:41;94122.03;;;22.82;60.99
11339;BME280;5724;42.684;23.252;2023-06-26T12:41:15;94101.91;;;22.49;61.63
11339;BME280;5724;42.684;23.252;2023-06-26T12:43:42;94137.44;;;22.87;61.15
11339;BME280;5724;42.684;23.252;2023-06-26T12:46:08;94132.50;;;22.78;60.88
11339;BME280;5724;42.684;23.252;2023-06-26T12:51:10;94125.09;;;23.26;63.14
11339;BME280;5724;42.684;23.252;2023-06-26T12:53:36;94116.97;;;23.31;63.98
11339;BME280;5724;42.684;23.252;2023-06-26T12:56:02;94126.22;;;23.41;65.53
11339;BME280;5724;42.684;23.252;2023-06-26T12:58:28;94124.22;;;23.54;64.50
11339;BME280;5724;42.684;23.252;2023-06-26T13:00:53;94115.66;;;23.74;64.87
11339;BME280;5724;42.684;23.252;2023-06-26T13:03:19;94110.47;;;23.85;63.17
11339;BME280;5724;42.684;23.252;2023-06-26T13:05:47;94111.44;;;24.04;62.55
11339;BME280;5724;42.684;23.252;2023-06-26T13:08:12;94121.84;;;23.91;62.54
11339;BME280;5724;42.684;23.252;2023-06-26T13:10:39;94120.69;;;24.14;63.26
11339;BME280;5724;42.684;23.252;2023-06-26T13:13:05;94126.34;;;24.23;63.14
11339;BME280;5724;42.684;23.252;2023-06-26T13:15:30;94121.25;;;24.31;63.17
11339;BME280;5724;42.684;23.252;2023-06-26T13:17:56;94123.06;;;24.37;60.04